Time;durP1;ratioP1;P1;durP2;ratioP2;P2;SDS_P1;SDS_P2;PMS_P1;PMS_P2;Temp;Humidity;BMP_temperature;BMP_pressure;BME280_temperature;BME280_humidity;BME280_pressure;Samples;Min_cycle;Max_cycle;Signal;HPM_P1;HPM_P2
2021/07/04 00:00:36;;;;;;;8.90;2.13;;;19.20;99.90;;;;;;5029974;28;20025;-85
2021/07/04 00:03:03;;;;;;;8.30;1.95;;;19.20;99.90;;;;;;5029813;28;20025;-85
2021/07/04 00:05:33;;;;;;;9.65;2.58;;;19.10;99.90;;;;;;5029597;28;20026;-85
2021/07/04 00:07:59;;;;;;;13.07;2.92;;;19.10;99.90;;;;;;5029768;28;20304;-85
2021/07/04 00:10:31;;;;;;;8.45;2.40;;;19.10;99.90;;;;;;5029524;28;20060;-85
2021/07/04 00:12:58;;;;;;;9.50;2.42;;;19.10;99.90;;;;;;5012227;28;20442;-85
2021/07/04 00:15:26;;;;;;;10.73;2.28;;;19.10;99.90;;;;;;5012258;28;20075;-85
2021/07/04 00:17:52;;;;;;;9.43;2.10;;;19.10;99.90;;;;;;5029412;28;20044;-85
2021/07/04 00:20:19;;;;;;;6.88;2.15;;;19.10;99.90;;;;;;5029761;28;20409;-85
2021/07/04 00:22:47;;;;;;;5.95;2.05;;;19.10;99.90;;;;;;5028432;28;20022;-85
2021/07/04 00:25:14;;;;;;;10.82;2.35;;;19.10;99.90;;;;;;5029548;28;20028;-85
2021/07/04 00:27:40;;;;;;;7.65;2.03;;;19.20;99.90;;;;;;5029807;28;20029;-85
2021/07/04 00:30:09;;;;;;;8.55;2.30;;;19.10;99.90;;;;;;5029561;28;20501;-85
2021/07/04 00:32:35;;;;;;;9.82;2.58;;;19.10;99.90;;;;;;5010968;28;20410;-85
2021/07/04 00:35:01;;;;;;;11.75;2.75;;;19.10;99.90;;;;;;5011744;28;20037;-84
2021/07/04 00:37:26;;;;;;;9.20;2.65;;;19.10;99.90;;;;;;5029579;28;20087;-85
2021/07/04 00:39:52;;;;;;;9.95;3.17;;;19.10;99.90;;;;;;5029577;28;20097;-85
2021/07/04 00:42:18;;;;;;;11.32;3.35;;;19.10;99.90;;;;;;5029480;28;20092;-84
2021/07/04 00:44:43;;;;;;;15.05;3.63;;;19.10;99.90;;;;;;5029184;28;20536;-85
2021/07/04 00:47:09;;;;;;;9.98;2.67;;;19.10;99.90;;;;;;5029497;28;20189;-85
2021/07/04 00:49:35;;;;;;;7.95;2.85;;;19.10;99.90;;;;;;5029373;28;20512;-85
2021/07/04 00:52:01;;;;;;;10.68;2.60;;;19.20;99.90;;;;;;5028275;28;20025;-85
2021/07/04 00:54:27;;;;;;;9.30;2.53;;;19.20;99.90;;;;;;5033721;28;20021;-85
2021/07/04 00:56:54;;;;;;;8.75;2.78;;;19.20;99.90;;;;;;5033042;28;20021;-86
2021/07/04 00:59:20;;;;;;;8.82;4.28;;;19.20;99.90;;;;;;5014495;28;20414;-85
2021/07/04 01:01:47;;;;;;;10.82;4.03;;;19.30;99.90;;;;;;5033098;28;20402;-86
2021/07/04 01:04:13;;;;;;;13.20;5.22;;;19.20;99.90;;;;;;5033076;28;20025;-85
2021/07/04 01:06:41;;;;;;;12.20;3.50;;;19.30;99.90;;;;;;5033013;28;20126;-85
2021/07/04 01:09:07;;;;;;;10.50;2.83;;;19.30;99.90;;;;;;5033236;28;20025;-85
2021/07/04 01:11:33;;;;;;;12.20;3.08;;;19.20;99.90;;;;;;5033160;28;20025;-85
2021/07/04 01:13:58;;;;;;;9.73;2.50;;;19.20;99.90;;;;;;5033454;28;20112;-85
2021/07/04 01:16:25;;;;;;;6.03;2.10;;;19.20;99.90;;;;;;5033108;28;20101;-85
2021/07/04 01:18:51;;;;;;;8.80;1.90;;;19.20;99.90;;;;;;5032748;28;20116;-85
2021/07/04 01:21:19;;;;;;;6.82;2.58;;;19.20;99.90;;;;;;5031615;28;20024;-85
2021/07/04 01:23:45;;;;;;;7.45;2.33;;;19.10;99.90;;;;;;5011608;28;20379;-85
2021/07/04 01:26:10;;;;;;;9.05;1.63;;;19.10;99.90;;;;;;5025606;28;20033;-85
2021/07/04 01:28:36;;;;;;;8.90;2.97;;;19.10;99.90;;;;;;5032994;28;20557;-85
2021/07/04 01:31:02;;;;;;;6.72;2.35;;;19.10;99.90;;;;;;5032806;28;20025;-85
2021/07/04 01:33:28;;;;;;;7.38;2.60;;;19.20;99.90;;;;;;5032757;28;20045;-85
2021/07/04 01:35:54;;;;;;;5.88;1.88;;;19.20;99.90;;;;;;5032549;28;20018;-85
2021/07/04 01:38:20;;;;;;;11.20;2.65;;;19.20;99.90;;;;;;5032642;28;20037;-85
2021/07/04 01:40:46;;;;;;;11.27;3.05;;;19.20;99.90;;;;;;5032407;28;20474;-85
2021/07/04 01:43:12;;;;;;;6.35;2.05;;;19.20;99.90;;;;;;5032508;28;20076;-85
2021/07/04 01:45:39;;;;;;;7.82;2.30;;;19.20;99.90;;;;;;5032550;28;20048;-85
2021/07/04 01:48:06;;;;;;;8.30;2.05;;;19.20;99.90;;;;;;5032379;28;20025;-85
2021/07/04 01:50:38;;;;;;;6.93;2.17;;;19.20;99.90;;;;;;5032525;28;20065;-85
2021/07/04 01:53:04;;;;;;;5.60;1.70;;;19.20;99.90;;;;;;5031103;28;20029;-85
2021/07/04 01:55:31;;;;;;;5.30;2.25;;;19.10;99.90;;;;;;5012355;28;20021;-85
2021/07/04 01:57:57;;;;;;;6.47;1.83;;;19.20;99.90;;;;;;5031936;28;20103;-85
2021/07/04 02:00:29;;;;;;;7.57;2.20;;;19.20;99.90;;;;;;5014273;28;20033;-85
2021/07/04 02:02:56;;;;;;;7.00;1.73;;;19.20;99.90;;;;;;5031958;28;20500;-85
2021/07/04 02:05:23;;;;;;;9.32;1.95;;;19.20;99.90;;;;;;5031267;28;20474;-85
2021/07/04 02:07:50;;;;;;;8.20;2.20;;;19.20;99.90;;;;;;5010871;28;20045;-85
2021/07/04 02:10:22;;;;;;;6.82;2.00;;;19.20;99.90;;;;;;5029740;28;20017;-85
2021/07/04 02:12:51;;;;;;;7.15;2.00;;;19.20;99.90;;;;;;5031920;28;20260;-85
2021/07/04 02:15:19;;;;;;;11.02;2.28;;;19.20;99.90;;;;;;5013908;28;20047;-85
2021/07/04 02:17:46;;;;;;;7.30;2.28;;;19.20;99.90;;;;;;5031814;28;20069;-85
2021/07/04 02:20:32;;;;;;;5.43;1.63;;;19.20;99.90;;;;;;5031702;28;20493;-85
2021/07/04 02:23:06;;;;;;;11.88;2.20;;;19.10;99.90;;;;;;5030510;28;20025;-85
2021/07/04 02:25:33;;;;;;;8.15;2.17;;;19.10;99.90;;;;;;5032224;28;20021;-84
2021/07/04 02:28:00;;;;;;;6.68;2.17;;;19.10;99.90;;;;;;5031744;28;20034;-84
2021/07/04 02:30:26;;;;;;;6.38;1.88;;;19.10;99.90;;;;;;5031715;28;20018;-84
2021/07/04 02:32:52;;;;;;;6.30;1.80;;;19.00;99.90;;;;;;5031733;28;20240;-84
2021/07/04 02:35:17;;;;;;;6.72;1.77;;;19.00;99.90;;;;;;5031634;28;20104;-84
2021/07/04 02:37:44;;;;;;;6.18;2.05;;;19.00;99.90;;;;;;5031295;28;20032;-84
2021/07/04 02:40:10;;;;;;;8.90;2.20;;;19.00;99.90;;;;;;5031471;28;20021;-84
2021/07/04 02:42:36;;;;;;;8.60;1.95;;;18.90;99.90;;;;;;5031179;28;20394;-84
2021/07/04 02:45:03;;;;;;;6.80;2.17;;;18.90;99.90;;;;;;5010152;28;20037;-84
2021/07/04 02:47:30;;;;;;;8.05;2.10;;;18.90;99.90;;;;;;5027041;28;20064;-84
2021/07/04 02:49:56;;;;;;;7.80;3.30;;;18.90;99.90;;;;;;5031040;28;20026;-84
2021/07/04 02:52:22;;;;;;;12.60;7.68;;;18.90;99.90;;;;;;5030249;28;20021;-84
2021/07/04 02:54:48;;;;;;;13.50;7.88;;;18.90;99.90;;;;;;5025517;28;20041;-83
2021/07/04 02:57:13;;;;;;;12.70;6.13;;;18.80;99.90;;;;;;5015053;28;20053;-84
2021/07/04 02:59:39;;;;;;;11.68;5.03;;;18.80;99.90;;;;;;5025239;28;20606;-83
2021/07/04 03:02:05;;;;;;;10.27;5.78;;;18.80;99.90;;;;;;5011485;28;20076;-82
2021/07/04 03:04:30;;;;;;;9.95;5.00;;;18.70;99.90;;;;;;5029943;28;20389;-82
2021/07/04 03:06:57;;;;;;;11.82;5.53;;;18.80;99.90;;;;;;5020293;28;20471;-82
2021/07/04 03:09:23;;;;;;;11.60;5.45;;;18.70;99.90;;;;;;5024992;28;20478;-82
2021/07/04 03:11:50;;;;;;;11.02;5.60;;;18.80;99.90;;;;;;5020092;28;20104;-82
2021/07/04 03:14:16;;;;;;;14.05;5.35;;;18.70;99.90;;;;;;5031625;28;20454;-82
2021/07/04 03:16:41;;;;;;;9.88;4.28;;;18.70;99.90;;;;;;5030807;28;20105;-82
2021/07/04 03:19:08;;;;;;;11.60;4.00;;;18.80;99.90;;;;;;5022593;28;20460;-82
2021/07/04 03:21:34;;;;;;;8.95;3.55;;;18.80;99.90;;;;;;5029178;28;20520;-82
2021/07/04 03:24:00;;;;;;;12.98;3.72;;;18.80;99.90;;;;;;5011585;28;20053;-82
2021/07/04 03:26:25;;;;;;;12.13;3.10;;;18.80;99.90;;;;;;5030276;28;20423;-82
2021/07/04 03:28:51;;;;;;;9.85;3.40;;;18.80;99.90;;;;;;5012600;28;20120;-81
2021/07/04 03:31:17;;;;;;;11.98;4.00;;;18.70;99.90;;;;;;5030770;28;20033;-81
2021/07/04 03:33:42;;;;;;;8.60;3.40;;;18.70;99.90;;;;;;5030431;28;20029;-81
2021/07/04 03:36:08;;;;;;;10.10;3.92;;;18.60;99.90;;;;;;5030149;28;20036;-82
2021/07/04 03:38:34;;;;;;;11.02;3.50;;;18.70;99.90;;;;;;5028960;28;20080;-82
2021/07/04 03:41:00;;;;;;;13.98;5.50;;;18.60;99.90;;;;;;5012412;28;20394;-82
2021/07/04 03:43:25;;;;;;;10.70;5.13;;;18.60;99.90;;;;;;5029998;28;20017;-84
2021/07/04 03:45:52;;;;;;;17.75;5.70;;;18.50;99.90;;;;;;5030068;28;20128;-85
2021/07/04 03:48:18;;;;;;;8.73;5.88;;;18.40;99.90;;;;;;5029999;28;20024;-85
2021/07/04 03:50:44;;;;;;;12.15;6.50;;;18.40;99.90;;;;;;5030083;28;20017;-85
2021/07/04 03:53:10;;;;;;;14.57;7.65;;;18.40;99.90;;;;;;5025332;28;20160;-84
2021/07/04 03:55:36;;;;;;;10.45;6.10;;;18.30;99.90;;;;;;5010404;28;20097;-84
2021/07/04 03:58:02;;;;;;;13.13;5.43;;;18.30;99.90;;;;;;5022958;28;20049;-84
2021/07/04 04:00:28;;;;;;;10.40;4.00;;;18.30;99.90;;;;;;5025380;28;20375;-84
2021/07/04 04:02:54;;;;;;;11.45;5.88;;;18.30;99.90;;;;;;5016103;28;20028;-86
2021/07/04 04:05:20;;;;;;;15.52;7.40;;;18.20;99.90;;;;;;5016483;28;20028;-91
2021/07/04 04:07:45;;;;;;;10.38;7.30;;;18.20;99.90;;;;;;5028663;28;20026;-90
2021/07/04 04:10:13;;;;;;;14.73;7.68;;;18.20;99.90;;;;;;5026510;28;20028;-92
2021/07/04 04:12:39;;;;;;;10.23;6.25;;;18.10;99.90;;;;;;5020664;28;20408;-89
2021/07/04 04:15:06;;;;;;;14.48;7.45;;;18.10;99.90;;;;;;5014560;28;20140;-89
2021/07/04 04:17:32;;;;;;;11.50;6.40;;;18.10;99.90;;;;;;5029927;28;20025;-88
2021/07/04 04:19:58;;;;;;;11.43;6.35;;;18.10;99.90;;;;;;5024325;28;20064;-88
2021/07/04 04:22:24;;;;;;;11.82;6.45;;;18.10;99.90;;;;;;5030121;28;20028;-87
2021/07/04 04:24:50;;;;;;;14.50;7.22;;;18.10;99.90;;;;;;5028512;28;20064;-87
2021/07/04 04:27:16;;;;;;;13.95;7.20;;;18.20;99.90;;;;;;5027858;28;20022;-88
2021/07/04 04:29:43;;;;;;;12.45;6.00;;;18.20;99.90;;;;;;5026321;28;20025;-88
2021/07/04 04:32:09;;;;;;;11.43;5.05;;;18.30;99.90;;;;;;5009887;28;20087;-88
2021/07/04 04:34:34;;;;;;;11.43;4.93;;;18.30;99.90;;;;;;5021142;28;20022;-88
2021/07/04 04:37:04;;;;;;;10.77;4.43;;;18.30;99.90;;;;;;5029753;28;20132;-89
2021/07/04 04:39:30;;;;;;;10.82;5.28;;;18.20;99.90;;;;;;5015792;28;20567;-88
2021/07/04 04:41:56;;;;;;;12.10;4.85;;;18.20;99.90;;;;;;5030219;28;20083;-88
2021/07/04 04:44:22;;;;;;;13.00;6.00;;;18.20;99.90;;;;;;5013911;28;20022;-88
2021/07/04 04:46:47;;;;;;;19.25;11.98;;;18.20;99.90;;;;;;5013526;28;20403;-87
2021/07/04 04:49:13;;;;;;;32.20;16.85;;;18.20;99.90;;;;;;5013711;28;20022;-87
2021/07/04 04:51:40;;;;;;;31.92;19.02;;;18.20;99.90;;;;;;5013719;28;20033;-86
2021/07/04 04:54:06;;;;;;;22.98;13.82;;;18.20;99.90;;;;;;5020109;28;20051;-86
2021/07/04 04:56:33;;;;;;;17.65;11.93;;;18.20;99.90;;;;;;5033329;28;20108;-86
2021/07/04 04:58:59;;;;;;;21.08;13.95;;;18.20;99.90;;;;;;5033135;28;20052;-86
2021/07/04 05:01:27;;;;;;;24.95;13.40;;;18.20;99.90;;;;;;5033370;28;20021;-86
2021/07/04 05:03:52;;;;;;;13.88;10.00;;;18.20;99.90;;;;;;5033169;28;20021;-85
2021/07/04 05:06:18;;;;;;;21.08;10.18;;;18.30;99.90;;;;;;5033207;28;20031;-85
2021/07/04 05:08:44;;;;;;;16.25;7.93;;;18.20;99.90;;;;;;5033188;28;20105;-85
2021/07/04 05:11:11;;;;;;;13.77;7.43;;;18.30;99.90;;;;;;5032909;28;20113;-86
2021/07/04 05:13:37;;;;;;;14.88;7.63;;;18.30;99.90;;;;;;5015099;28;20126;-85
2021/07/04 05:16:05;;;;;;;10.15;6.05;;;18.30;99.90;;;;;;5033099;28;20021;-86
2021/07/04 05:18:31;;;;;;;8.48;5.10;;;18.30;99.90;;;;;;5033022;28;20061;-86
2021/07/04 05:20:57;;;;;;;9.27;5.72;;;18.30;99.90;;;;;;5011509;28;20541;-85
2021/07/04 05:23:23;;;;;;;8.88;6.05;;;18.30;99.90;;;;;;5023142;28;20029;-86
2021/07/04 05:25:49;;;;;;;16.67;7.25;;;18.30;99.90;;;;;;5013739;28;20532;-86
2021/07/04 05:28:16;;;;;;;12.85;7.55;;;18.30;99.90;;;;;;5016415;28;20018;-86
2021/07/04 05:30:42;;;;;;;15.32;7.10;;;18.30;99.90;;;;;;5025431;28;20052;-86
2021/07/04 05:33:08;;;;;;;10.60;6.30;;;18.30;99.90;;;;;;5029488;28;20065;-86
2021/07/04 05:35:34;;;;;;;10.75;4.93;;;18.30;99.90;;;;;;5032589;28;20049;-85
2021/07/04 05:38:00;;;;;;;11.55;4.85;;;18.30;99.90;;;;;;5019852;28;20037;-85
2021/07/04 05:40:25;;;;;;;16.08;5.35;;;18.30;99.90;;;;;;5030916;28;20029;-86
2021/07/04 05:42:52;;;;;;;13.25;5.82;;;18.30;99.90;;;;;;5019635;28;20564;-86
2021/07/04 05:45:24;;;;;;;9.15;3.10;;;18.30;99.90;;;;;;5032490;28;20267;-86
2021/07/04 05:47:50;;;;;;;11.23;3.40;;;18.40;99.90;;;;;;5032389;28;20030;-86
2021/07/04 05:50:15;;;;;;;9.50;3.28;;;18.40;99.90;;;;;;5022576;28;20022;-86
2021/07/04 05:52:41;;;;;;;11.27;2.45;;;18.50;99.90;;;;;;5030926;28;20563;-86
2021/07/04 05:55:08;;;;;;;12.10;2.83;;;18.60;99.90;;;;;;5019354;28;20040;-86
2021/07/04 05:57:33;;;;;;;7.93;2.55;;;18.60;99.90;;;;;;5013657;28;20077;-86
2021/07/04 05:59:59;;;;;;;8.05;2.65;;;18.70;99.90;;;;;;5018149;28;20068;-86
2021/07/04 06:02:24;;;;;;;11.48;3.08;;;18.70;99.90;;;;;;5018157;28;20037;-86
2021/07/04 06:04:50;;;;;;;12.50;3.47;;;18.70;99.90;;;;;;5020811;28;20036;-86
2021/07/04 06:07:16;;;;;;;11.02;3.25;;;18.70;99.90;;;;;;5031996;28;20026;-86
2021/07/04 06:09:41;;;;;;;6.93;3.03;;;18.70;99.90;;;;;;5031873;28;20021;-86
2021/07/04 06:12:08;;;;;;;8.35;3.47;;;18.70;99.90;;;;;;5019815;28;20141;-86
2021/07/04 06:14:34;;;;;;;7.60;3.17;;;18.80;99.90;;;;;;5012816;28;20013;-86
2021/07/04 06:17:00;;;;;;;10.98;3.22;;;18.70;99.90;;;;;;5031851;28;20563;-86
2021/07/04 06:19:25;;;;;;;9.93;2.97;;;18.70;99.90;;;;;;5031852;28;20029;-86
2021/07/04 06:21:51;;;;;;;10.65;2.83;;;18.80;99.90;;;;;;5031659;28;20029;-86
2021/07/04 06:24:17;;;;;;;8.48;2.60;;;18.80;99.90;;;;;;5031518;28;20497;-86
2021/07/04 06:26:42;;;;;;;9.80;2.70;;;18.80;99.90;;;;;;5019127;28;20414;-86
2021/07/04 06:29:08;;;;;;;10.80;2.63;;;18.90;99.90;;;;;;5013701;28;20026;-86
2021/07/04 06:31:33;;;;;;;9.45;2.28;;;19.00;99.90;;;;;;5017660;28;20034;-86
2021/07/04 06:33:59;;;;;;;7.68;2.13;;;19.10;99.90;;;;;;5017579;28;20386;-85
2021/07/04 06:36:26;;;;;;;8.85;2.40;;;19.20;99.90;;;;;;5020735;28;20029;-86
2021/07/04 06:38:53;;;;;;;7.13;2.10;;;19.30;99.90;;;;;;5031779;28;20026;-86
2021/07/04 06:41:19;;;;;;;7.97;2.30;;;19.60;99.90;;;;;;5031378;28;20029;-86
2021/07/04 06:43:44;;;;;;;7.65;1.60;;;19.80;99.90;;;;;;5018166;28;20135;-87
2021/07/04 06:46:10;;;;;;;6.88;1.50;;;19.90;99.90;;;;;;5030455;28;20043;-86
2021/07/04 06:48:37;;;;;;;7.72;1.75;;;19.90;99.90;;;;;;5031279;28;20033;-87
2021/07/04 06:51:06;;;;;;;8.25;1.90;;;19.90;99.90;;;;;;5030750;28;20017;-86
2021/07/04 06:53:32;;;;;;;7.40;1.73;;;19.90;99.90;;;;;;5031343;28;20437;-86
2021/07/04 06:55:58;;;;;;;10.45;2.28;;;19.90;99.90;;;;;;5028949;28;20108;-86
2021/07/04 06:58:23;;;;;;;7.70;1.50;;;19.90;99.90;;;;;;5030660;28;20129;-86
2021/07/04 07:00:49;;;;;;;5.10;1.50;;;20.00;99.90;;;;;;5030765;28;20025;-86
2021/07/04 07:03:15;;;;;;;7.68;1.95;;;20.00;99.90;;;;;;5031155;28;20079;-87
2021/07/04 07:05:41;;;;;;;8.93;1.65;;;20.00;99.90;;;;;;5032665;28;20013;-87
2021/07/04 07:08:06;;;;;;;6.68;1.50;;;20.00;99.90;;;;;;5030740;28;20025;-88
2021/07/04 07:10:32;;;;;;;10.85;1.55;;;19.90;99.90;;;;;;5030999;28;20025;-87
2021/07/04 07:12:58;;;;;;;7.85;2.15;;;20.00;99.90;;;;;;5030846;28;20527;-87
2021/07/04 07:15:24;;;;;;;7.93;1.95;;;20.10;99.90;;;;;;5030736;28;20062;-87
2021/07/04 07:17:50;;;;;;;7.15;1.65;;;20.00;99.90;;;;;;5030561;28;20493;-87
2021/07/04 07:20:16;;;;;;;10.98;2.28;;;20.00;99.90;;;;;;5030379;28;20010;-87
2021/07/04 07:22:42;;;;;;;10.70;2.30;;;20.00;99.90;;;;;;5030889;28;20030;-87
2021/07/04 07:25:09;;;;;;;12.18;2.00;;;19.90;99.90;;;;;;5030627;28;20021;-87
2021/07/04 07:27:35;;;;;;;11.60;2.35;;;19.90;99.90;;;;;;5020987;28;20049;-87
2021/07/04 07:30:02;;;;;;;10.45;2.45;;;19.80;99.90;;;;;;5011363;28;20022;-87
2021/07/04 07:32:28;;;;;;;11.60;2.10;;;19.70;99.90;;;;;;5016116;28;20099;-87
2021/07/04 07:34:54;;;;;;;9.10;2.30;;;19.70;99.90;;;;;;5029231;28;20025;-87
2021/07/04 07:37:22;;;;;;;10.35;2.00;;;19.80;99.90;;;;;;5017503;28;20083;-88
2021/07/04 07:39:48;;;;;;;10.45;2.30;;;19.80;99.90;;;;;;5030315;28;20250;-86
2021/07/04 07:42:14;;;;;;;7.65;1.80;;;19.80;99.90;;;;;;5030261;28;20057;-87
2021/07/04 07:44:40;;;;;;;13.70;2.50;;;20.00;99.90;;;;;;5019161;28;20092;-87
2021/07/04 07:47:06;;;;;;;11.52;2.47;;;20.20;99.90;;;;;;5027215;28;20028;-87
2021/07/04 07:49:32;;;;;;;12.27;2.88;;;20.30;99.90;;;;;;5030097;28;20100;-88
2021/07/04 07:51:59;;;;;;;10.90;2.47;;;20.40;99.90;;;;;;5023831;28;20048;-86
2021/07/04 07:54:25;;;;;;;11.68;2.70;;;20.30;99.90;;;;;;5030054;28;20397;-87
2021/07/04 07:56:51;;;;;;;11.18;2.35;;;20.30;99.90;;;;;;5030119;28;20295;-87
2021/07/04 07:59:19;;;;;;;11.52;2.90;;;20.20;99.90;;;;;;5011752;28;20245;-91
2021/07/04 08:01:48;;;;;;;16.25;3.05;;;19.90;99.90;;;;;;5013051;28;20014;-91
2021/07/04 08:04:13;;;;;;;11.85;2.92;;;19.70;99.90;;;;;;5003439;28;20525;-92
2021/07/04 08:06:39;;;;;;;15.75;5.35;;;19.40;99.90;;;;;;5018456;28;20018;-91
2021/07/04 08:09:05;;;;;;;14.30;4.88;;;19.20;99.90;;;;;;5029769;28;20021;-91
2021/07/04 08:11:31;;;;;;;16.67;4.38;;;19.20;99.90;;;;;;5030040;28;20028;-92
2021/07/04 08:13:57;;;;;;;20.17;5.05;;;19.00;99.90;;;;;;5012262;28;20235;-89
2021/07/04 08:16:23;;;;;;;25.90;5.93;;;19.00;99.90;;;;;;5024110;28;20168;-87
2021/07/04 08:18:49;;;;;;;19.73;4.82;;;19.10;99.90;;;;;;5021291;28;20112;-85
2021/07/04 08:21:15;;;;;;;18.35;4.50;;;19.10;99.90;;;;;;5029621;28;20018;-85
2021/07/04 08:23:41;;;;;;;20.15;2.95;;;19.20;99.90;;;;;;5029737;28;20151;-82
2021/07/04 08:26:06;;;;;;;15.82;3.17;;;19.20;99.90;;;;;;5029784;28;20075;-83
2021/07/04 08:28:33;;;;;;;16.50;3.00;;;19.30;99.90;;;;;;5029518;28;20049;-85
2021/07/04 08:30:59;;;;;;;16.63;3.10;;;19.40;99.90;;;;;;5027373;28;20032;-87
2021/07/04 08:33:25;;;;;;;12.82;4.70;;;19.60;99.90;;;;;;5025805;28;20014;-87
2021/07/04 08:35:50;;;;;;;16.60;3.35;;;19.70;99.90;;;;;;5018745;28;20594;-88
2021/07/04 08:38:16;;;;;;;15.27;3.42;;;19.70;99.90;;;;;;5008751;28;20064;-91
2021/07/04 08:40:42;;;;;;;15.52;3.30;;;19.60;99.90;;;;;;5013925;28;20038;-84
2021/07/04 08:43:08;;;;;;;26.55;5.20;;;19.50;99.90;;;;;;4996550;28;20447;-91
2021/07/04 08:45:42;;;;;;;18.50;5.32;;;19.20;99.90;;;;;;5009686;28;20116;-90
2021/07/04 08:48:08;;;;;;;10.93;3.00;;;18.90;99.90;;;;;;5017055;28;20641;-89
2021/07/04 08:50:34;;;;;;;9.27;2.92;;;18.50;99.90;;;;;;5011490;28;20033;-87
2021/07/04 08:53:00;;;;;;;18.67;3.55;;;18.20;99.90;;;;;;4993130;28;20018;-87
2021/07/04 08:55:28;;;;;;;12.13;2.60;;;18.10;99.90;;;;;;5009947;28;20135;-70
2021/07/04 08:57:57;;;;;;;21.13;6.13;;;18.00;99.90;;;;;;5009221;28;20425;-71
2021/07/04 09:00:25;;;;;;;31.35;8.10;;;18.00;99.90;;;;;;5020405;28;20025;-71
2021/07/04 09:02:51;;;;;;;25.48;6.78;;;18.00;99.90;;;;;;5027161;28;20037;-70
2021/07/04 09:05:16;;;;;;;17.95;2.97;;;18.10;99.90;;;;;;5023133;28;20021;-70
2021/07/04 09:07:43;;;;;;;16.50;4.30;;;18.10;99.90;;;;;;5013091;28;20372;-71
2021/07/04 09:10:19;;;;;;;18.15;4.38;;;18.10;99.90;;;;;;5019814;28;20035;-70
2021/07/04 09:12:49;;;;;;;12.57;3.55;;;18.20;99.90;;;;;;5009894;28;20014;-71
2021/07/04 09:15:28;;;;;;;9.77;2.53;;;18.20;99.90;;;;;;5013400;28;20092;-71
2021/07/04 09:17:59;;;;;;;9.00;1.98;;;18.10;99.90;;;;;;5026872;28;20026;-71
2021/07/04 09:20:31;;;;;;;9.52;1.60;;;18.00;99.90;;;;;;5013417;28;20552;-70
2021/07/04 09:22:58;;;;;;;7.05;1.90;;;17.90;99.90;;;;;;5012866;28;20029;-70
2021/07/04 09:25:26;;;;;;;7.43;1.85;;;18.00;99.90;;;;;;5017237;28;20465;-70
2021/07/04 09:28:12;;;;;;;9.82;1.67;;;18.00;99.90;;;;;;5027140;28;20036;-71
2021/07/04 09:30:56;;;;;;;13.20;1.83;;;18.00;99.90;;;;;;5024119;28;20021;-71
2021/07/04 09:33:26;;;;;;;14.17;2.63;;;18.20;99.90;;;;;;5032731;28;20013;-71
2021/07/04 09:35:57;;;;;;;10.45;2.90;;;18.40;99.90;;;;;;5032429;28;20026;-72
2021/07/04 09:38:25;;;;;;;11.32;1.98;;;18.70;99.90;;;;;;5011340;28;20492;-71
2021/07/04 09:40:52;;;;;;;10.05;1.80;;;18.90;99.90;;;;;;5026420;28;20017;-72
2021/07/04 09:43:19;;;;;;;12.88;2.72;;;19.00;99.90;;;;;;5032342;28;20100;-71
2021/07/04 09:45:54;;;;;;;12.93;2.03;;;19.10;99.90;;;;;;5032425;28;20018;-70
2021/07/04 09:48:20;;;;;;;9.80;1.70;;;19.00;99.90;;;;;;5032201;28;20025;-70
2021/07/04 09:50:50;;;;;;;10.88;1.45;;;19.10;99.90;;;;;;5032449;28;20382;-70
2021/07/04 09:53:17;;;;;;;8.23;1.50;;;19.00;99.90;;;;;;5032134;28;20017;-70
2021/07/04 09:55:44;;;;;;;8.93;1.80;;;19.00;99.90;;;;;;5032302;28;20017;-71
2021/07/04 09:58:12;;;;;;;11.05;1.48;;;19.20;99.90;;;;;;5031928;28;20084;-69
2021/07/04 10:00:41;;;;;;;9.65;1.88;;;19.10;99.90;;;;;;5019420;28;20010;-69
2021/07/04 10:03:11;;;;;;;9.63;2.33;;;19.00;99.90;;;;;;5015109;28;20606;-69
2021/07/04 10:05:59;;;;;;;11.43;1.73;;;19.00;99.90;;;;;;5032173;28;20359;-72
2021/07/04 10:08:31;;;;;;;15.05;1.77;;;19.10;99.90;;;;;;5023652;28;20107;-76
2021/07/04 10:11:01;;;;;;;14.02;1.90;;;19.20;99.90;;;;;;5026692;28;20025;-77
2021/07/04 10:13:29;;;;;;;15.07;2.25;;;19.30;99.90;;;;;;5031927;28;20052;-77
2021/07/04 10:15:55;;;;;;;12.30;2.22;;;19.50;99.90;;;;;;5017932;28;20033;-81
2021/07/04 10:18:21;;;;;;;10.05;2.03;;;19.40;99.90;;;;;;5015954;28;20061;-81
2021/07/04 10:20:49;;;;;;;11.15;2.25;;;19.30;99.90;;;;;;5013715;28;20514;-80
2021/07/04 10:23:21;;;;;;;11.80;2.47;;;19.20;99.90;;;;;;5019189;28;20109;-83
2021/07/04 10:25:48;;;;;;;14.48;2.72;;;19.20;99.90;;;;;;5024511;28;20060;-84
2021/07/04 10:28:18;;;;;;;10.32;1.80;;;19.20;99.90;;;;;;5032569;28;20045;-83
2021/07/04 10:30:48;;;;;;;17.38;2.95;;;19.20;99.90;;;;;;5032011;28;20505;-80
2021/07/04 10:33:21;;;;;;;11.57;2.15;;;19.00;99.90;;;;;;5013734;28;20398;-80
2021/07/04 10:36:05;;;;;;;16.27;2.47;;;19.00;99.90;;;;;;5031570;28;20055;-80
2021/07/04 10:38:45;;;;;;;13.88;3.00;;;19.00;99.90;;;;;;5031451;28;20037;-80
2021/07/04 10:41:28;;;;;;;9.98;2.35;;;19.10;99.90;;;;;;5031793;28;20026;-80
2021/07/04 10:44:09;;;;;;;12.65;1.75;;;19.20;99.90;;;;;;5013556;28;20378;-82
2021/07/04 10:46:44;;;;;;;11.77;2.63;;;19.40;99.90;;;;;;5012418;28;20026;-83
2021/07/04 10:49:30;;;;;;;11.68;2.40;;;19.60;99.90;;;;;;5015391;28;20029;-82
2021/07/04 10:52:10;;;;;;;11.32;2.28;;;19.80;99.90;;;;;;5008418;28;20026;-86
2021/07/04 10:54:39;;;;;;;14.07;2.40;;;20.10;99.90;;;;;;5017340;28;20037;-86
2021/07/04 10:57:19;;;;;;;10.32;2.78;;;20.30;99.90;;;;;;5030973;28;20049;-85
2021/07/04 11:00:08;;;;;;;12.73;2.70;;;20.40;99.90;;;;;;5030986;28;20025;-85
2021/07/04 11:02:59;;;;;;;8.45;1.73;;;20.70;99.90;;;;;;5019997;28;20037;-85
2021/07/04 11:05:34;;;;;;;10.25;2.13;;;20.90;99.90;;;;;;5013033;28;20033;-84
2021/07/04 11:08:06;;;;;;;13.45;3.38;;;20.80;99.90;;;;;;5030959;28;20100;-85
2021/07/04 11:10:35;;;;;;;11.68;2.78;;;20.70;99.90;;;;;;5030919;28;20126;-85
2021/07/04 11:13:10;;;;;;;14.18;2.85;;;20.80;99.90;;;;;;5030988;28;20021;-85
2021/07/04 11:15:37;;;;;;;14.55;2.25;;;20.80;99.90;;;;;;5030988;28;20032;-85
2021/07/04 11:18:10;;;;;;;13.52;2.72;;;21.00;99.90;;;;;;5030660;28;20037;-84
2021/07/04 11:20:39;;;;;;;13.75;2.55;;;21.00;99.90;;;;;;5016501;28;20378;-85
2021/07/04 11:23:26;;;;;;;13.50;2.42;;;21.00;99.90;;;;;;5030926;28;20025;-85
2021/07/04 11:25:57;;;;;;;11.02;2.50;;;21.10;99.90;;;;;;5031561;28;20049;-85
2021/07/04 11:28:24;;;;;;;12.77;2.97;;;21.00;99.90;;;;;;5018027;28;20056;-84
2021/07/04 11:31:17;;;;;;;12.38;2.70;;;20.90;99.90;;;;;;5030124;28;20025;-85
2021/07/04 11:33:53;;;;;;;11.77;2.45;;;21.00;99.90;;;;;;5030775;28;20127;-85
2021/07/04 11:36:28;;;;;;;11.90;2.50;;;21.20;99.90;;;;;;5030529;28;20034;-85
2021/07/04 11:39:04;;;;;;;9.52;2.00;;;21.40;99.90;;;;;;5030089;28;20453;-84
2021/07/04 11:41:36;;;;;;;9.20;1.95;;;21.50;99.90;;;;;;5030308;28;20033;-85
2021/07/04 11:44:11;;;;;;;15.43;2.50;;;21.30;99.90;;;;;;5030160;28;20118;-84
2021/07/04 11:46:40;;;;;;;14.20;2.55;;;21.50;99.90;;;;;;5018203;28;20032;-85
2021/07/04 11:49:07;;;;;;;13.20;2.95;;;21.60;99.90;;;;;;5030090;28;20021;-84
2021/07/04 11:51:42;;;;;;;12.57;2.88;;;21.50;99.90;;;;;;5030453;28;20053;-85
2021/07/04 11:54:30;;;;;;;12.45;3.30;;;21.40;99.90;;;;;;5016476;28;20064;-85
2021/07/04 11:57:29;;;;;;;11.13;2.22;;;21.70;99.90;;;;;;5019592;28;20018;-85
2021/07/04 12:00:01;;;;;;;9.65;2.17;;;21.50;99.90;;;;;;5029549;28;20026;-85
2021/07/04 12:02:28;;;;;;;18.13;2.70;;;21.50;99.90;;;;;;5021713;28;20026;-85
2021/07/04 12:04:54;;;;;;;12.57;2.42;;;21.60;99.90;;;;;;5029995;28;20116;-86
2021/07/04 12:07:24;;;;;;;23.58;2.92;;;21.70;99.90;;;;;;5030795;28;20665;-84
2021/07/04 12:09:53;;;;;;;14.65;2.85;;;22.00;99.90;;;;;;5025996;28;20064;-84
2021/07/04 12:12:30;;;;;;;11.50;3.28;;;22.00;99.90;;;;;;5018434;28;20021;-86
2021/07/04 12:15:05;;;;;;;11.63;2.75;;;21.90;99.90;;;;;;5030173;28;20025;-86
2021/07/04 12:17:40;;;;;;;8.15;2.00;;;21.60;99.90;;;;;;5019217;28;20065;-85
2021/07/04 12:20:06;;;;;;;12.95;2.70;;;21.60;99.90;;;;;;5029728;28;20040;-85
2021/07/04 12:22:39;;;;;;;13.88;2.80;;;21.70;99.90;;;;;;5029877;28;20033;-85
2021/07/04 12:25:11;;;;;;;10.88;2.40;;;21.60;99.90;;;;;;5029816;28;20060;-85
2021/07/04 12:27:42;;;;;;;9.27;2.25;;;21.50;99.90;;;;;;5018419;28;20417;-86
2021/07/04 12:30:14;;;;;;;13.10;2.40;;;21.50;99.90;;;;;;5029734;28;20408;-86
2021/07/04 12:33:02;;;;;;;14.75;3.45;;;21.70;99.90;;;;;;5029630;28;20022;-85
2021/07/04 12:35:37;;;;;;;12.88;2.40;;;21.90;99.90;;;;;;5029570;28;20111;-86
2021/07/04 12:38:07;;;;;;;10.55;2.42;;;22.30;99.90;;;;;;5029774;28;20038;-86
2021/07/04 12:40:47;;;;;;;6.93;1.50;;;22.60;99.90;;;;;;5026369;28;20029;-86
2021/07/04 12:43:15;;;;;;;9.48;2.22;;;22.90;99.90;;;;;;5012047;28;20025;-86
2021/07/04 12:45:52;;;;;;;9.55;1.83;;;22.60;99.90;;;;;;5029532;28;20486;-86